Airfield :
LOGIN :

Register | Disclaimer

   EN    FR    IT 

 










Legend :    VFR   Marginal VFR   IFR   Intensive IFR   Very Intensive IFR
Visi :
Ceiling :
>= 8 km
>= 3000ft
5 to 8 km
1000 to 3000 ft
1500m to 5 km
500 to 1000 ft
800 to 1500m
200 to 500 ft
< 800m
< 200 ft
Symbols :   Thunderstorms  Fog  Heavy snow  Heavy precipitations  Wind > 20 kt
SIGMETs :     Misc.  Thunderstorms  Icing  Turbulence  Mountain Waves  Volcanic Ashes







- Airport Elevation : 464 ft
- IATA code : EVX
- Download approach charts


LFOE - Evreux

CURRENT METAR :
  • 250700Z AUTO 33003KT 290V020 0500 0450 R22/0800U FG VV/// 12/12 Q1018 BECMG 9999 NSW SCT010

EXPIRED METARs :
  • 250630Z AUTO 36003KT 320V030 0250 0200 R22/0275N FG VV/// 12/11 Q1018 BECMG 9999 NSW SCT010
  • 250600Z AUTO 35003KT 310V030 0250 0200 R22/0275N FG VV/// 11/11 Q1018 BECMG 9999 NSW SCT010
  • 250530Z AUTO 32004KT 280V350 0200 R22/0200N FG VV/// 11/11 Q1017 BECMG 9999 NSW SCT010
  • 250500Z AUTO 29003KT 0150 R22/0175N FG VV/// 11/11 Q1017 TEMPO 2000 BR
  • 250430Z AUTO VRB03KT 0150 R22/0175N FG VV/// 11/11 Q1017 TEMPO 2000 BR

TAF AMD TAF LFOE
Valid from the 25 at 03:00 until the 26 at 03:00 UTC


250359Z 2503/2603 29003KT 0200 FG VV///
TEMPO 2504/2507 2000 BR BKN005
BECMG 2507/2509 9999 NSW SCT010
BECMG 2510/2512 04010KT SCT025
TEMPO 2513/2518 VRB10G20KT 4000 -SHRA SCT040TCU
PROB30
TEMPO 2514/2518 VRB20G30KT 2000 TSRAGS BKN030CB
BECMG 2518/2520 3000 BR BKN004
TEMPO 2523/2603 0400 FG VV///
No reported NOTAMs for that airfield.



MET'MAP, your aeronautical weather chart ! - Copyright ORBIFLY December 2007 - Disclaimer

ORBIFLY MET'MAP TEAM :

Programming & Development : Alexandra Zaïnal
Concept & Development : Baudouin d'Aumeries
Co-Development & Prog : Marc-Olivier Méhu
Technical & hardware support : Manuel Goepfert

Contact : metmap@orbifly.com




SOURCES & CREDITS :

   NOAA